createdAt,value
2022-10-05T00:00:20.413Z,11.94
2022-10-05T00:01:19.708Z,11.93
2022-10-05T00:02:19.665Z,11.90
2022-10-05T00:03:19.691Z,11.93
2022-10-05T00:04:19.644Z,11.93
2022-10-05T00:05:19.721Z,11.93
2022-10-05T00:06:19.626Z,11.93
2022-10-05T00:07:19.615Z,11.93
2022-10-05T00:08:19.607Z,11.90
2022-10-05T00:09:19.622Z,11.93
2022-10-05T00:10:19.584Z,11.90
2022-10-05T00:11:19.572Z,11.90
2022-10-05T00:12:19.569Z,11.90
2022-10-05T00:13:19.556Z,11.90
2022-10-05T00:14:19.545Z,11.90
2022-10-05T00:15:19.559Z,11.90
2022-10-05T00:16:19.611Z,11.90
2022-10-05T00:17:19.508Z,11.90
2022-10-05T00:18:19.508Z,11.93
2022-10-05T00:19:19.497Z,11.90
2022-10-05T00:20:19.485Z,11.90
2022-10-05T00:21:19.496Z,11.90
2022-10-05T00:22:19.465Z,11.90
2022-10-05T00:23:19.460Z,11.93
2022-10-05T00:24:19.457Z,11.89
2022-10-05T00:25:19.429Z,11.89
2022-10-05T00:26:19.429Z,11.90
2022-10-05T00:27:19.452Z,11.90
2022-10-05T00:28:19.445Z,11.90
2022-10-05T00:29:19.390Z,11.89
2022-10-05T00:30:19.384Z,11.89
2022-10-05T00:31:19.397Z,11.90
2022-10-05T00:32:19.360Z,11.89
2022-10-05T00:33:19.390Z,11.90
2022-10-05T00:34:19.340Z,11.90
2022-10-05T00:35:19.329Z,11.90
2022-10-05T00:36:19.322Z,11.89
2022-10-05T00:37:19.314Z,11.90
2022-10-05T00:38:19.300Z,11.90
2022-10-05T00:39:19.314Z,11.90
2022-10-05T00:40:19.285Z,11.90
2022-10-05T00:41:19.265Z,11.90
2022-10-05T00:42:19.257Z,11.93
2022-10-05T00:43:19.244Z,11.90
2022-10-05T00:44:19.247Z,11.90
2022-10-05T00:45:19.258Z,11.90
2022-10-05T00:46:19.276Z,11.93
2022-10-05T00:47:19.206Z,11.89
2022-10-05T00:48:19.202Z,11.90
2022-10-05T00:49:19.192Z,11.89
2022-10-05T00:50:19.185Z,11.89
2022-10-05T00:51:19.188Z,11.89
2022-10-05T00:52:19.156Z,11.89
2022-10-05T00:53:19.155Z,11.89
2022-10-05T00:54:19.138Z,11.90
2022-10-05T00:55:19.128Z,11.89
2022-10-05T00:56:19.127Z,11.89
2022-10-05T00:57:19.147Z,11.90
2022-10-05T00:58:19.098Z,11.90
2022-10-05T00:59:19.089Z,11.89
2022-10-05T01:00:19.079Z,11.90
2022-10-05T01:01:19.113Z,11.89
2022-10-05T01:02:19.097Z,11.90
2022-10-05T01:03:19.085Z,11.90
2022-10-05T01:04:19.041Z,11.89
2022-10-05T01:05:19.021Z,11.90
2022-10-05T01:06:19.019Z,11.90
2022-10-05T01:07:19.002Z,11.89
2022-10-05T01:08:19.002Z,11.90
2022-10-05T01:09:19.014Z,11.89
2022-10-05T01:10:18.972Z,11.93
2022-10-05T01:11:18.962Z,11.89
2022-10-05T01:12:18.960Z,11.90
2022-10-05T01:13:18.943Z,11.90
2022-10-05T01:14:18.948Z,11.90
2022-10-05T01:15:18.946Z,11.90
2022-10-05T01:16:18.945Z,11.90
2022-10-05T01:17:18.896Z,11.90
2022-10-05T01:18:18.900Z,11.90
2022-10-05T01:19:18.892Z,11.90
2022-10-05T01:20:18.872Z,11.93
2022-10-05T01:21:18.888Z,11.90
2022-10-05T01:22:18.855Z,11.93
2022-10-05T01:23:18.838Z,11.93
2022-10-05T01:24:18.837Z,11.94
2022-10-05T01:25:18.824Z,11.90
2022-10-05T01:26:18.818Z,11.93
2022-10-05T01:27:18.827Z,11.93
2022-10-05T01:28:18.850Z,11.93
2022-10-05T01:29:18.778Z,11.90
2022-10-05T01:30:18.771Z,11.93
2022-10-05T01:31:18.779Z,11.93
2022-10-05T01:32:18.754Z,11.94
2022-10-05T01:33:18.775Z,11.96
2022-10-05T01:34:18.741Z,11.96
2022-10-05T01:35:18.720Z,11.96
2022-10-05T01:36:18.710Z,11.94
2022-10-05T01:37:18.699Z,11.96
2022-10-05T01:38:20.301Z,11.96
2022-10-05T01:39:18.708Z,11.97
2022-10-05T01:40:18.680Z,11.96
2022-10-05T01:41:18.659Z,11.97
2022-10-05T01:42:18.652Z,11.97
2022-10-05T01:43:18.641Z,11.96
2022-10-05T01:44:18.628Z,11.99
2022-10-05T01:45:18.643Z,11.97
2022-10-05T01:46:18.676Z,11.97
2022-10-05T01:47:18.602Z,11.99
2022-10-05T01:48:18.601Z,11.99
2022-10-05T01:49:18.585Z,11.97
2022-10-05T01:50:18.564Z,11.99
2022-10-05T01:51:18.653Z,12.01
2022-10-05T01:52:18.552Z,11.99
2022-10-05T01:53:18.535Z,12.02
2022-10-05T01:54:18.532Z,12.02
2022-10-05T01:55:18.522Z,12.02
2022-10-05T01:56:18.510Z,12.02
2022-10-05T01:57:18.535Z,12.02
2022-10-05T01:58:18.488Z,12.04
2022-10-05T01:59:18.482Z,12.02
2022-10-05T02:00:18.466Z,12.04
2022-10-05T02:01:18.532Z,12.02
2022-10-05T02:02:18.533Z,12.04
2022-10-05T02:03:18.465Z,12.01
2022-10-05T02:04:42.666Z,12.02
2022-10-05T02:05:19.421Z,12.04
2022-10-05T02:06:18.407Z,12.04
2022-10-05T02:07:18.397Z,12.02
2022-10-05T02:08:18.389Z,12.02
2022-10-05T02:09:18.409Z,12.02
2022-10-05T02:10:18.369Z,12.05
2022-10-05T02:11:18.363Z,12.05
2022-10-05T02:12:18.346Z,12.05
2022-10-05T02:13:18.339Z,12.05
2022-10-05T02:14:18.334Z,12.05
2022-10-05T02:15:18.347Z,12.06
2022-10-05T02:16:18.338Z,12.06
2022-10-05T02:17:18.291Z,12.06
2022-10-05T02:18:18.289Z,12.08
2022-10-05T02:19:18.272Z,12.08
2022-10-05T02:20:18.272Z,12.06
2022-10-05T02:21:18.316Z,12.08
2022-10-05T02:22:18.243Z,12.08
2022-10-05T02:23:18.233Z,12.08
2022-10-05T02:24:18.249Z,12.08
2022-10-05T02:25:18.214Z,12.09
2022-10-05T02:26:18.211Z,12.08
2022-10-05T02:27:18.233Z,12.09
2022-10-05T02:28:18.244Z,12.09
2022-10-05T02:29:18.174Z,12.09
2022-10-05T02:30:18.164Z,12.08
2022-10-05T02:31:18.260Z,12.09
2022-10-05T02:32:18.156Z,12.09
2022-10-05T02:33:18.174Z,12.11
2022-10-05T02:34:18.127Z,12.09
2022-10-05T02:35:18.116Z,12.11
2022-10-05T02:36:18.120Z,12.12
2022-10-05T02:37:18.086Z,12.11
2022-10-05T02:38:18.085Z,12.12
2022-10-05T02:39:18.104Z,12.12
2022-10-05T02:40:18.067Z,12.12
2022-10-05T02:41:18.049Z,12.12
2022-10-05T02:42:18.047Z,12.13
2022-10-05T02:43:18.029Z,12.13
2022-10-05T02:44:18.026Z,12.12
2022-10-05T02:45:18.040Z,12.12
2022-10-05T02:46:18.062Z,12.13
2022-10-05T02:47:17.990Z,12.12
2022-10-05T02:48:17.990Z,12.13
2022-10-05T02:49:17.973Z,12.15
2022-10-05T02:50:17.971Z,12.15
2022-10-05T02:51:17.987Z,12.15
2022-10-05T02:52:17.950Z,12.16
2022-10-05T02:53:17.930Z,12.15
2022-10-05T02:54:17.929Z,12.16
2022-10-05T02:55:18.590Z,12.16
2022-10-05T02:56:17.903Z,12.19
2022-10-05T02:57:17.933Z,12.16
2022-10-05T02:58:17.880Z,12.19
2022-10-05T02:59:17.863Z,12.19
2022-10-05T03:00:17.870Z,12.19
2022-10-05T03:01:17.941Z,12.21
2022-10-05T03:02:17.884Z,12.21
2022-10-05T03:03:17.861Z,12.19
2022-10-05T03:04:17.816Z,12.20
2022-10-05T03:05:17.807Z,12.20
2022-10-05T03:06:17.804Z,12.21
2022-10-05T03:07:17.784Z,12.20
2022-10-05T03:08:17.778Z,12.21
2022-10-05T03:09:17.785Z,12.20
2022-10-05T03:10:17.756Z,12.21
2022-10-05T03:11:17.738Z,12.24
2022-10-05T03:12:17.734Z,12.24
2022-10-05T03:13:17.717Z,12.24
2022-10-05T03:14:17.710Z,12.26
2022-10-05T03:15:17.716Z,12.24
2022-10-05T03:16:17.750Z,12.26
2022-10-05T03:17:17.674Z,12.26
2022-10-05T03:18:17.669Z,12.29
2022-10-05T03:19:17.656Z,12.29
2022-10-05T03:20:17.650Z,12.29
2022-10-05T03:21:17.660Z,12.29
2022-10-05T03:22:17.627Z,12.30
2022-10-05T03:23:17.609Z,12.30
2022-10-05T03:24:17.602Z,12.30
2022-10-05T03:25:17.590Z,12.30
2022-10-05T03:26:17.583Z,12.30
2022-10-05T03:27:17.608Z,12.30
2022-10-05T03:28:17.591Z,12.33
2022-10-05T03:29:17.541Z,12.33
2022-10-05T03:30:17.545Z,12.31
2022-10-05T03:31:17.600Z,12.31
2022-10-05T03:32:17.524Z,12.33
2022-10-05T03:33:17.533Z,12.34
2022-10-05T03:34:17.503Z,12.37
2022-10-05T03:35:17.483Z,12.34
2022-10-05T03:36:17.486Z,12.34
2022-10-05T03:37:17.463Z,12.33
2022-10-05T03:38:17.465Z,12.34
2022-10-05T03:39:17.476Z,12.37
2022-10-05T03:40:17.442Z,12.38
2022-10-05T03:41:17.428Z,12.38
2022-10-05T03:42:17.426Z,12.39
2022-10-05T03:43:17.416Z,12.38
2022-10-05T03:44:17.398Z,12.38
2022-10-05T03:45:17.416Z,12.37
2022-10-05T03:46:17.434Z,12.38
2022-10-05T03:47:17.368Z,12.39
2022-10-05T03:48:17.358Z,12.41
2022-10-05T03:49:17.344Z,12.42
2022-10-05T03:50:17.347Z,12.41
2022-10-05T03:51:17.349Z,12.42
2022-10-05T03:52:17.318Z,12.42
2022-10-05T03:53:17.315Z,12.44
2022-10-05T03:54:17.289Z,12.42
2022-10-05T03:55:17.289Z,12.44
2022-10-05T03:56:17.272Z,12.45
2022-10-05T03:57:17.290Z,12.45
2022-10-05T03:58:17.252Z,12.45
2022-10-05T03:59:17.244Z,12.45
2022-10-05T04:00:17.237Z,12.48
2022-10-05T04:01:17.254Z,12.48
2022-10-05T04:02:17.261Z,12.45
2022-10-05T04:03:17.232Z,12.46
2022-10-05T04:04:17.189Z,12.46
2022-10-05T04:05:17.180Z,12.46
2022-10-05T04:06:17.173Z,12.46
2022-10-05T04:07:17.161Z,12.46
2022-10-05T04:08:17.143Z,12.45
2022-10-05T04:09:17.164Z,12.46
2022-10-05T04:10:17.123Z,12.46
2022-10-05T04:11:17.115Z,12.48
2022-10-05T04:12:17.104Z,12.46
2022-10-05T04:13:17.101Z,12.48
2022-10-05T04:14:17.082Z,12.49
2022-10-05T04:15:19.022Z,12.48
2022-10-05T04:16:17.143Z,12.48
2022-10-05T04:17:17.057Z,12.49
2022-10-05T04:18:17.039Z,12.51
2022-10-05T04:19:17.034Z,12.51
2022-10-05T04:20:17.018Z,12.49
2022-10-05T04:21:20.152Z,12.51
2022-10-05T04:22:17.987Z,12.49
2022-10-05T04:23:16.988Z,12.51
2022-10-05T04:24:16.976Z,12.49
2022-10-05T04:25:16.965Z,12.49
2022-10-05T04:26:16.950Z,12.51
2022-10-05T04:27:16.968Z,12.51
2022-10-05T04:28:16.963Z,12.52
2022-10-05T04:29:16.920Z,12.52
2022-10-05T04:30:16.909Z,12.54
2022-10-05T04:31:16.962Z,12.52
2022-10-05T04:32:16.901Z,12.54
2022-10-05T04:33:16.912Z,12.54
2022-10-05T04:34:16.868Z,12.56
2022-10-05T04:35:16.861Z,12.54
2022-10-05T04:36:16.845Z,12.54
2022-10-05T04:37:16.844Z,12.54
2022-10-05T04:38:16.822Z,12.54
2022-10-05T04:39:16.844Z,12.54
2022-10-05T04:40:16.802Z,12.56
2022-10-05T04:41:16.800Z,12.56
2022-10-05T04:42:16.782Z,12.54
2022-10-05T04:43:16.775Z,12.56
2022-10-05T04:44:16.763Z,12.57
2022-10-05T04:45:16.793Z,12.59
2022-10-05T04:46:16.807Z,12.56
2022-10-05T04:47:16.735Z,12.57
2022-10-05T04:48:16.715Z,12.57
2022-10-05T04:49:16.713Z,12.59
2022-10-05T04:50:16.695Z,12.59
2022-10-05T04:51:16.729Z,12.60
2022-10-05T04:52:16.675Z,12.59
2022-10-05T04:53:16.675Z,12.60
2022-10-05T04:54:16.658Z,12.59
2022-10-05T04:55:16.648Z,12.60
2022-10-05T04:56:16.635Z,12.60
2022-10-05T04:57:16.655Z,12.60
2022-10-05T04:58:16.619Z,12.60
2022-10-05T04:59:16.606Z,12.62
2022-10-05T05:00:16.677Z,12.62
2022-10-05T05:01:16.603Z,12.60
2022-10-05T05:02:16.566Z,12.63
2022-10-05T05:03:16.542Z,12.64
2022-10-05T05:04:16.500Z,12.62
2022-10-05T05:05:16.543Z,12.62
2022-10-05T05:06:18.057Z,12.62
2022-10-05T05:07:16.531Z,12.63
2022-10-05T05:08:16.511Z,12.64
2022-10-05T05:09:16.541Z,12.64
2022-10-05T05:10:16.489Z,12.66
2022-10-05T05:11:19.983Z,12.66
2022-10-05T05:12:17.461Z,12.66
2022-10-05T05:13:16.455Z,12.69
2022-10-05T05:14:16.443Z,12.64
2022-10-05T05:15:16.479Z,12.67
2022-10-05T05:16:16.454Z,12.69
2022-10-05T05:17:16.417Z,12.66
2022-10-05T05:18:16.395Z,12.67
2022-10-05T05:19:16.393Z,12.67
2022-10-05T05:20:16.379Z,12.69
2022-10-05T05:21:16.398Z,12.69
2022-10-05T05:22:16.363Z,12.70
2022-10-05T05:23:16.344Z,12.69
2022-10-05T05:24:16.335Z,12.69
2022-10-05T05:25:16.326Z,12.70
2022-10-05T05:26:16.315Z,12.71
2022-10-05T05:27:16.334Z,12.70
2022-10-05T05:28:16.317Z,12.71
2022-10-05T05:29:16.244Z,12.71
2022-10-05T05:30:16.219Z,12.70
2022-10-05T05:31:16.300Z,12.71
2022-10-05T05:32:16.189Z,12.70
2022-10-05T05:33:16.219Z,12.71
2022-10-05T05:34:16.178Z,12.71
2022-10-05T05:35:16.170Z,12.71
2022-10-05T05:36:20.765Z,12.74
2022-10-05T05:37:17.147Z,12.71
2022-10-05T05:38:16.144Z,12.71
2022-10-05T05:39:16.157Z,12.74
2022-10-05T05:40:16.124Z,12.74
2022-10-05T05:41:16.124Z,12.74
2022-10-05T05:42:16.092Z,12.75
2022-10-05T05:43:16.082Z,12.74
2022-10-05T05:44:16.062Z,12.77
2022-10-05T05:45:16.102Z,12.77
2022-10-05T05:46:16.103Z,12.75
2022-10-05T05:47:16.214Z,12.78
2022-10-05T05:48:16.044Z,12.77
2022-10-05T05:49:16.021Z,12.78
2022-10-05T05:50:16.019Z,12.79
2022-10-05T05:51:16.020Z,12.79
2022-10-05T05:52:15.984Z,12.79
2022-10-05T05:53:15.976Z,12.78
2022-10-05T05:54:15.961Z,12.78
2022-10-05T05:55:15.955Z,12.79
2022-10-05T05:56:15.983Z,12.79
2022-10-05T05:57:15.967Z,12.81
2022-10-05T05:58:15.952Z,12.81
2022-10-05T05:59:15.906Z,12.81
2022-10-05T06:00:15.897Z,12.82
2022-10-05T06:01:31.707Z,12.82
2022-10-05T06:02:16.995Z,12.82
2022-10-05T06:03:16.007Z,12.82
2022-10-05T06:04:15.855Z,12.84
2022-10-05T06:05:15.845Z,12.87
2022-10-05T06:06:15.848Z,12.85
2022-10-05T06:07:15.828Z,12.85
2022-10-05T06:08:15.847Z,12.85
2022-10-05T06:09:15.798Z,12.88
2022-10-05T06:10:15.787Z,12.87
2022-10-05T06:11:15.790Z,12.88
2022-10-05T06:12:15.770Z,12.87
2022-10-05T06:13:15.766Z,12.88
2022-10-05T06:14:15.780Z,12.88
2022-10-05T06:15:15.741Z,12.87
2022-10-05T06:16:15.757Z,12.88
2022-10-05T06:17:15.733Z,12.92
2022-10-05T06:18:15.731Z,12.88
2022-10-05T06:19:15.701Z,12.89
2022-10-05T06:20:16.673Z,12.89
2022-10-05T06:21:15.682Z,12.89
2022-10-05T06:22:15.682Z,12.92
2022-10-05T06:23:15.663Z,12.92
2022-10-05T06:24:15.644Z,12.92
2022-10-05T06:25:15.636Z,12.92
2022-10-05T06:26:15.659Z,12.92
2022-10-05T06:27:15.616Z,12.93
2022-10-05T06:28:15.667Z,12.95
2022-10-05T06:29:15.605Z,12.95
2022-10-05T06:30:15.584Z,12.95
2022-10-05T06:31:15.648Z,12.97
2022-10-05T06:32:15.587Z,12.97
2022-10-05T06:33:15.555Z,12.97
2022-10-05T06:34:15.544Z,12.97
2022-10-05T06:35:15.534Z,12.99
2022-10-05T06:36:15.529Z,13.00
2022-10-05T06:37:15.508Z,13.02
2022-10-05T06:38:15.527Z,13.03
2022-10-05T06:39:15.489Z,13.03
2022-10-05T06:40:15.500Z,13.03
2022-10-05T06:41:15.470Z,13.04
2022-10-05T06:42:15.458Z,13.06
2022-10-05T06:43:15.450Z,13.06
2022-10-05T06:44:15.460Z,13.06
2022-10-05T06:45:15.432Z,13.06
2022-10-05T06:46:16.307Z,13.09
2022-10-05T06:47:15.409Z,13.09
2022-10-05T06:48:15.392Z,13.11
2022-10-05T06:49:15.388Z,13.09
2022-10-05T06:50:15.409Z,13.11
2022-10-05T06:51:15.371Z,13.11
2022-10-05T06:52:15.352Z,13.12
2022-10-05T06:53:15.345Z,13.11
2022-10-05T06:54:15.330Z,13.12
2022-10-05T06:55:15.324Z,13.12
2022-10-05T06:56:15.344Z,13.14
2022-10-05T06:57:15.314Z,13.14
2022-10-05T06:58:15.293Z,13.12
2022-10-05T06:59:15.300Z,13.12
2022-10-05T07:00:15.331Z,13.12
2022-10-05T07:01:15.355Z,13.14
2022-10-05T07:02:15.366Z,13.14
2022-10-05T07:03:15.238Z,13.15
2022-10-05T07:04:15.236Z,13.15
2022-10-05T07:05:15.216Z,13.17
2022-10-05T07:06:15.198Z,13.20
2022-10-05T07:07:15.197Z,13.20
2022-10-05T07:08:15.213Z,13.21
2022-10-05T07:09:15.212Z,13.21
2022-10-05T07:10:15.172Z,13.22
2022-10-05T07:11:15.166Z,13.22
2022-10-05T07:12:15.145Z,13.24
2022-10-05T07:13:15.137Z,13.24
2022-10-05T07:14:15.161Z,13.25
2022-10-05T07:15:15.117Z,13.24
2022-10-05T07:16:15.133Z,13.25
2022-10-05T07:17:15.105Z,13.25
2022-10-05T07:18:15.082Z,13.25
2022-10-05T07:19:15.071Z,13.27
2022-10-05T07:20:15.093Z,13.27
2022-10-05T07:21:15.052Z,13.27
2022-10-05T07:22:15.041Z,13.27
2022-10-05T07:23:15.037Z,13.27
2022-10-05T07:24:15.022Z,13.27
2022-10-05T07:25:15.064Z,13.25
2022-10-05T07:26:15.023Z,13.27
2022-10-05T07:27:14.992Z,13.29
2022-10-05T07:28:15.003Z,13.29
2022-10-05T07:29:14.970Z,13.32
2022-10-05T07:30:14.969Z,13.32
2022-10-05T07:31:15.010Z,13.32
2022-10-05T07:32:14.965Z,13.33
2022-10-05T07:33:14.925Z,13.37
2022-10-05T07:34:14.916Z,13.38
2022-10-05T07:35:14.906Z,13.38
2022-10-05T07:36:14.896Z,13.40
2022-10-05T07:37:14.895Z,13.41
2022-10-05T07:38:14.906Z,13.43
2022-10-05T07:39:14.865Z,13.43
2022-10-05T07:40:14.896Z,13.46
2022-10-05T07:41:14.850Z,13.49
2022-10-05T07:42:14.828Z,13.47
2022-10-05T07:43:14.829Z,13.51
2022-10-05T07:44:14.851Z,13.52
2022-10-05T07:45:14.807Z,13.54
2022-10-05T07:46:14.895Z,13.54
2022-10-05T07:47:14.789Z,13.55
2022-10-05T07:48:14.770Z,13.55
2022-10-05T07:49:14.771Z,13.55
2022-10-05T07:50:14.899Z,13.55
2022-10-05T07:51:14.749Z,13.55
2022-10-05T07:52:14.728Z,13.56
2022-10-05T07:53:14.720Z,13.58
2022-10-05T07:54:14.712Z,13.58
2022-10-05T07:55:14.735Z,13.59
2022-10-05T07:56:14.732Z,13.59
2022-10-05T07:57:14.682Z,13.61
2022-10-05T07:58:14.674Z,13.61
2022-10-05T07:59:14.670Z,13.59
2022-10-05T08:00:14.737Z,13.61
2022-10-05T08:01:14.640Z,13.61
2022-10-05T08:02:14.819Z,13.62
2022-10-05T08:03:14.671Z,13.63
2022-10-05T08:04:14.603Z,13.65
2022-10-05T08:05:14.664Z,13.69
2022-10-05T08:06:14.594Z,13.70
2022-10-05T08:07:14.622Z,13.71
2022-10-05T08:08:16.782Z,13.70
2022-10-05T08:09:15.555Z,13.71
2022-10-05T08:10:14.552Z,13.74
2022-10-05T08:11:14.563Z,13.76
2022-10-05T08:12:14.535Z,13.76
2022-10-05T08:13:14.514Z,13.79
2022-10-05T08:14:14.530Z,13.81
2022-10-05T08:15:14.496Z,13.83
2022-10-05T08:16:14.576Z,13.83
2022-10-05T08:17:15.166Z,13.83
2022-10-05T08:18:15.155Z,13.84
2022-10-05T08:19:14.469Z,13.87
2022-10-05T08:20:15.931Z,13.87
2022-10-05T08:21:14.442Z,13.89
2022-10-05T08:22:14.429Z,13.91
2022-10-05T08:23:15.101Z,13.92
2022-10-05T08:24:15.094Z,13.92
2022-10-05T08:25:14.402Z,13.92
2022-10-05T08:26:15.041Z,13.92
2022-10-05T08:27:15.061Z,13.92
2022-10-05T08:28:14.440Z,13.94
2022-10-05T08:29:15.041Z,13.95
2022-10-05T08:30:15.032Z,13.96
2022-10-05T08:31:14.401Z,13.96
2022-10-05T08:32:14.351Z,13.98
2022-10-05T08:33:14.312Z,13.96
2022-10-05T08:34:14.305Z,13.98
2022-10-05T08:35:14.294Z,13.98
2022-10-05T08:36:14.302Z,13.99
2022-10-05T08:37:14.282Z,13.99
2022-10-05T08:38:14.294Z,13.99
2022-10-05T08:39:14.248Z,13.98
2022-10-05T08:40:14.265Z,13.96
2022-10-05T08:41:14.239Z,13.98
2022-10-05T08:42:14.225Z,13.99
2022-10-05T08:43:14.205Z,14.02
2022-10-05T08:44:14.236Z,14.07
2022-10-05T08:45:14.188Z,14.07
2022-10-05T08:46:14.240Z,14.06
2022-10-05T08:47:14.167Z,14.06
2022-10-05T08:48:14.159Z,14.04
2022-10-05T08:49:14.147Z,14.04
2022-10-05T08:50:14.169Z,14.07
2022-10-05T08:51:14.122Z,14.07
2022-10-05T08:52:14.128Z,14.09
2022-10-05T08:53:14.099Z,14.07
2022-10-05T08:54:14.110Z,14.07
2022-10-05T08:55:14.080Z,14.04
2022-10-05T08:56:19.111Z,14.06
2022-10-05T08:57:15.059Z,14.06
2022-10-05T08:58:14.054Z,14.06
2022-10-05T08:59:14.043Z,14.04
2022-10-05T09:00:14.033Z,14.04
2022-10-05T09:01:14.123Z,14.04
2022-10-05T09:02:14.095Z,14.02
2022-10-05T09:03:14.001Z,14.02
2022-10-05T09:04:13.993Z,14.02
2022-10-05T09:05:13.992Z,14.01
2022-10-05T09:06:13.975Z,14.01
2022-10-05T09:07:13.963Z,14.01
2022-10-05T09:08:13.994Z,14.01
2022-10-05T09:09:13.949Z,13.99
2022-10-05T09:10:13.935Z,13.99
2022-10-05T09:11:13.923Z,13.99
2022-10-05T09:12:13.938Z,14.01
2022-10-05T09:13:13.895Z,14.01
2022-10-05T09:14:13.927Z,13.99
2022-10-05T09:15:25.469Z,13.99
2022-10-05T09:16:14.937Z,13.99
2022-10-05T09:17:13.858Z,13.99
2022-10-05T09:18:13.848Z,13.98
2022-10-05T09:19:13.837Z,14.01
2022-10-05T09:20:13.869Z,13.99
2022-10-05T09:21:13.818Z,13.99
2022-10-05T09:22:13.817Z,13.98
2022-10-05T09:23:13.797Z,13.99
2022-10-05T09:24:13.790Z,13.99
2022-10-05T09:25:13.786Z,14.01
2022-10-05T09:26:13.791Z,14.01
2022-10-05T09:27:13.757Z,14.01
2022-10-05T09:28:13.785Z,14.02
2022-10-05T09:29:13.734Z,14.02
2022-10-05T09:30:13.738Z,14.04
2022-10-05T09:31:13.738Z,14.06
2022-10-05T09:32:16.494Z,14.06
2022-10-05T09:33:13.722Z,14.06
2022-10-05T09:34:13.693Z,14.06
2022-10-05T09:35:13.668Z,14.10
2022-10-05T09:36:13.672Z,14.12
2022-10-05T09:37:13.653Z,14.16
2022-10-05T09:38:13.681Z,14.20
2022-10-05T09:39:13.634Z,14.24
2022-10-05T09:40:13.623Z,14.27
2022-10-05T09:41:13.611Z,14.28
2022-10-05T09:42:13.598Z,14.28
2022-10-05T09:43:13.596Z,14.28
2022-10-05T09:44:13.621Z,14.28
2022-10-05T09:45:16.568Z,14.29
2022-10-05T09:46:14.626Z,14.31
2022-10-05T09:47:13.555Z,14.32
2022-10-05T09:48:13.538Z,14.34
2022-10-05T09:49:13.526Z,14.34
2022-10-05T09:50:13.564Z,14.34
2022-10-05T09:51:13.517Z,14.37
2022-10-05T09:52:18.653Z,14.38
2022-10-05T09:53:14.490Z,14.42
2022-10-05T09:54:13.479Z,14.43
2022-10-05T09:55:13.469Z,14.44
2022-10-05T09:56:13.499Z,14.49
2022-10-05T09:57:13.450Z,14.50
2022-10-05T09:58:13.443Z,14.54
2022-10-05T09:59:13.432Z,14.57
2022-10-05T10:00:13.422Z,14.61
2022-10-05T10:01:32.802Z,14.61
2022-10-05T10:02:14.510Z,14.62
2022-10-05T10:03:13.452Z,14.65
2022-10-05T10:04:13.390Z,14.68
2022-10-05T10:05:13.363Z,14.74
2022-10-05T10:06:13.365Z,14.78
2022-10-05T10:07:13.343Z,14.83
2022-10-05T10:08:13.363Z,14.84
2022-10-05T10:09:13.313Z,14.88
2022-10-05T10:10:13.314Z,14.88
2022-10-05T10:11:13.301Z,14.90
2022-10-05T10:12:13.297Z,14.91
2022-10-05T10:13:13.283Z,14.94
2022-10-05T10:14:13.296Z,14.94
2022-10-05T10:15:13.255Z,14.99
2022-10-05T10:16:13.404Z,14.99
2022-10-05T10:17:13.235Z,14.98
2022-10-05T10:18:13.225Z,14.99
2022-10-05T10:19:13.230Z,14.98
2022-10-05T10:20:13.245Z,14.94
2022-10-05T10:21:13.197Z,14.94
2022-10-05T10:22:13.493Z,14.91
2022-10-05T10:23:13.191Z,14.88
2022-10-05T10:24:13.166Z,14.88
2022-10-05T10:25:13.154Z,14.87
2022-10-05T10:26:13.192Z,14.86
2022-10-05T10:27:13.129Z,14.84
2022-10-05T10:28:13.215Z,14.83
2022-10-05T10:29:13.113Z,14.81
2022-10-05T10:30:13.124Z,14.80
2022-10-05T10:31:13.119Z,14.74
2022-10-05T10:32:13.112Z,14.71
2022-10-05T10:33:13.063Z,14.69
2022-10-05T10:34:13.058Z,14.68
2022-10-05T10:35:13.044Z,14.67
2022-10-05T10:36:13.041Z,14.65
2022-10-05T10:37:13.023Z,14.64
2022-10-05T10:38:13.043Z,14.62
2022-10-05T10:39:13.004Z,14.62
2022-10-05T10:40:12.995Z,14.61
2022-10-05T10:41:13.005Z,14.62
2022-10-05T10:42:12.974Z,14.62
2022-10-05T10:43:12.964Z,14.62
2022-10-05T10:44:12.987Z,14.64
2022-10-05T10:45:12.939Z,14.64
2022-10-05T10:46:12.967Z,14.64
2022-10-05T10:47:12.917Z,14.64
2022-10-05T10:48:12.909Z,14.67
2022-10-05T10:49:12.894Z,14.67
2022-10-05T10:50:12.914Z,14.68
2022-10-05T10:51:12.895Z,14.68
2022-10-05T10:52:12.873Z,14.68
2022-10-05T10:53:12.858Z,14.71
2022-10-05T10:54:12.866Z,14.72
2022-10-05T10:55:12.832Z,14.71
2022-10-05T10:56:12.857Z,14.72
2022-10-05T10:57:12.810Z,14.74
2022-10-05T10:58:16.052Z,14.71
2022-10-05T10:59:12.791Z,14.71
2022-10-05T11:00:12.781Z,14.72
2022-10-05T11:01:12.836Z,14.72
2022-10-05T11:02:12.844Z,14.72
2022-10-05T11:03:12.813Z,14.72
2022-10-05T11:04:12.752Z,14.71
2022-10-05T11:05:12.731Z,14.71
2022-10-05T11:06:12.721Z,14.69
2022-10-05T11:07:12.713Z,14.71
2022-10-05T11:08:12.725Z,14.69
2022-10-05T11:09:12.684Z,14.69
2022-10-05T11:10:12.674Z,14.69
2022-10-05T11:11:12.675Z,14.69
2022-10-05T11:12:12.656Z,14.65
2022-10-05T11:13:12.645Z,14.64
2022-10-05T11:14:12.668Z,14.62
2022-10-05T11:15:12.625Z,14.61
2022-10-05T11:16:15.826Z,14.60
2022-10-05T11:17:13.608Z,14.57
2022-10-05T11:18:12.594Z,14.60
2022-10-05T11:19:12.583Z,14.60
2022-10-05T11:20:12.609Z,14.60
2022-10-05T11:21:12.558Z,14.60
2022-10-05T11:22:12.548Z,14.60
2022-10-05T11:23:12.538Z,14.57
2022-10-05T11:24:12.549Z,14.56
2022-10-05T11:25:12.519Z,14.54
2022-10-05T11:26:12.550Z,14.53
2022-10-05T11:27:12.550Z,14.52
2022-10-05T11:28:12.524Z,14.50
2022-10-05T11:29:12.501Z,14.50
2022-10-05T11:30:12.464Z,14.49
2022-10-05T11:31:12.493Z,14.47
2022-10-05T11:32:12.473Z,14.47
2022-10-05T11:33:12.431Z,14.46
2022-10-05T11:34:12.422Z,14.46
2022-10-05T11:35:12.412Z,14.47
2022-10-05T11:36:12.401Z,14.46
2022-10-05T11:37:12.392Z,14.44
2022-10-05T11:38:12.422Z,14.42
2022-10-05T11:39:12.374Z,14.42
2022-10-05T11:40:12.385Z,14.42
2022-10-05T11:41:12.354Z,14.38
2022-10-05T11:42:12.365Z,14.37
2022-10-05T11:43:12.329Z,14.37
2022-10-05T11:44:12.347Z,14.37
2022-10-05T11:45:15.141Z,14.34
2022-10-05T11:46:12.338Z,14.35
2022-10-05T11:47:12.286Z,14.34
2022-10-05T11:48:12.286Z,14.32
2022-10-05T11:49:12.264Z,14.29
2022-10-05T11:50:12.284Z,14.34
2022-10-05T11:51:12.258Z,14.34
2022-10-05T11:52:12.247Z,14.34
2022-10-05T11:53:12.247Z,14.31
2022-10-05T11:54:12.219Z,14.31
2022-10-05T11:55:12.468Z,14.31
2022-10-05T11:56:12.215Z,14.29
2022-10-05T11:57:12.181Z,14.28
2022-10-05T11:58:12.172Z,14.28
2022-10-05T11:59:12.174Z,14.27
2022-10-05T12:00:12.153Z,14.27
2022-10-05T12:01:12.140Z,14.27
2022-10-05T12:02:12.157Z,14.25
2022-10-05T12:03:12.222Z,14.27
2022-10-05T12:04:12.148Z,14.27
2022-10-05T12:05:12.100Z,14.25
2022-10-05T12:06:12.089Z,14.28
2022-10-05T12:07:12.073Z,14.29
2022-10-05T12:08:12.099Z,14.29
2022-10-05T12:09:12.174Z,14.29
2022-10-05T12:10:12.054Z,14.31
2022-10-05T12:11:12.033Z,14.34
2022-10-05T12:12:12.025Z,14.34
2022-10-05T12:13:12.015Z,14.34
2022-10-05T12:14:12.036Z,14.34
2022-10-05T12:15:11.998Z,14.34
2022-10-05T12:16:12.030Z,14.34
2022-10-05T12:17:11.975Z,14.32
2022-10-05T12:18:11.959Z,14.32
2022-10-05T12:19:11.956Z,14.32
2022-10-05T12:20:11.968Z,14.32
2022-10-05T12:21:11.935Z,14.34
2022-10-05T12:22:11.916Z,14.32
2022-10-05T12:23:11.915Z,14.32
2022-10-05T12:24:11.899Z,14.32
2022-10-05T12:25:11.893Z,14.32
2022-10-05T12:26:11.909Z,14.34
2022-10-05T12:27:11.870Z,14.34
2022-10-05T12:28:11.891Z,14.34
2022-10-05T12:29:11.852Z,14.32
2022-10-05T12:30:11.836Z,14.35
2022-10-05T12:31:11.847Z,14.37
2022-10-05T12:32:11.839Z,14.38
2022-10-05T12:33:11.808Z,14.38
2022-10-05T12:34:11.804Z,14.37
2022-10-05T12:35:11.782Z,14.37
2022-10-05T12:36:11.776Z,14.37
2022-10-05T12:37:11.772Z,14.35
2022-10-05T12:38:11.782Z,14.37
2022-10-05T12:39:11.742Z,14.35
2022-10-05T12:40:11.723Z,14.34
2022-10-05T12:41:11.724Z,14.34
2022-10-05T12:42:11.705Z,14.32
2022-10-05T12:43:11.693Z,14.32
2022-10-05T12:44:11.712Z,14.34
2022-10-05T12:45:11.683Z,14.34
2022-10-05T12:46:11.706Z,14.34
2022-10-05T12:47:11.695Z,14.32
2022-10-05T12:48:11.648Z,14.31
2022-10-05T12:49:11.643Z,14.32
2022-10-05T12:50:11.646Z,14.32
2022-10-05T12:51:11.631Z,14.34
2022-10-05T12:52:11.605Z,14.34